sensor_id;sensor_type;location;lat;lon;timestamp;temperature;humidity
18777;DHT22;9517;51.174;4.160;2023-05-07T00:01:15;17.10;99.90
18777;DHT22;9517;51.174;4.160;2023-05-07T00:03:42;17.10;99.90
18777;DHT22;9517;51.174;4.160;2023-05-07T00:06:09;17.10;99.90
18777;DHT22;9517;51.174;4.160;2023-05-07T00:08:38;17.10;99.90
18777;DHT22;9517;51.174;4.160;2023-05-07T00:11:06;17.10;99.90
18777;DHT22;9517;51.174;4.160;2023-05-07T00:13:33;17.20;99.90
18777;DHT22;9517;51.174;4.160;2023-05-07T00:16:03;17.20;99.90
18777;DHT22;9517;51.174;4.160;2023-05-07T00:18:30;17.20;99.90
18777;DHT22;9517;51.174;4.160;2023-05-07T00:20:58;17.20;99.90
18777;DHT22;9517;51.174;4.160;2023-05-07T00:23:28;17.20;99.90
18777;DHT22;9517;51.174;4.160;2023-05-07T00:25:56;17.10;99.90
18777;DHT22;9517;51.174;4.160;2023-05-07T00:28:23;17.10;99.90
18777;DHT22;9517;51.174;4.160;2023-05-07T00:30:50;17.00;99.90
18777;DHT22;9517;51.174;4.160;2023-05-07T00:33:22;17.00;99.90
18777;DHT22;9517;51.174;4.160;2023-05-07T00:35:49;17.00;99.90
18777;DHT22;9517;51.174;4.160;2023-05-07T00:38:16;16.90;99.90
18777;DHT22;9517;51.174;4.160;2023-05-07T00:40:44;16.90;99.90
18777;DHT22;9517;51.174;4.160;2023-05-07T00:43:11;16.90;99.90
18777;DHT22;9517;51.174;4.160;2023-05-07T00:45:39;16.80;99.90
18777;DHT22;9517;51.174;4.160;2023-05-07T00:48:07;16.70;99.90
18777;DHT22;9517;51.174;4.160;2023-05-07T00:50:36;16.70;99.90
18777;DHT22;9517;51.174;4.160;2023-05-07T00:53:05;16.60;99.90
18777;DHT22;9517;51.174;4.160;2023-05-07T00:55:33;16.50;99.90
18777;DHT22;9517;51.174;4.160;2023-05-07T00:58:00;16.40;99.90
18777;DHT22;9517;51.174;4.160;2023-05-07T01:00:28;16.40;99.90
18777;DHT22;9517;51.174;4.160;2023-05-07T01:02:56;16.40;99.90
18777;DHT22;9517;51.174;4.160;2023-05-07T01:05:23;16.30;99.90
18777;DHT22;9517;51.174;4.160;2023-05-07T01:07:53;16.30;99.90
18777;DHT22;9517;51.174;4.160;2023-05-07T01:10:22;16.20;99.90
18777;DHT22;9517;51.174;4.160;2023-05-07T01:12:51;16.10;99.90
18777;DHT22;9517;51.174;4.160;2023-05-07T01:15:19;16.00;99.90
18777;DHT22;9517;51.174;4.160;2023-05-07T01:17:46;16.00;99.90
18777;DHT22;9517;51.174;4.160;2023-05-07T01:20:14;16.00;99.90
18777;DHT22;9517;51.174;4.160;2023-05-07T01:22:43;16.00;99.90
18777;DHT22;9517;51.174;4.160;2023-05-07T01:25:11;16.00;99.90
18777;DHT22;9517;51.174;4.160;2023-05-07T01:27:39;15.90;99.90
18777;DHT22;9517;51.174;4.160;2023-05-07T01:30:07;15.90;99.90
18777;DHT22;9517;51.174;4.160;2023-05-07T01:32:40;15.90;99.90
18777;DHT22;9517;51.174;4.160;2023-05-07T01:35:11;15.90;99.90
18777;DHT22;9517;51.174;4.160;2023-05-07T01:37:39;15.90;99.90
18777;DHT22;9517;51.174;4.160;2023-05-07T01:40:09;15.90;99.90
18777;DHT22;9517;51.174;4.160;2023-05-07T01:42:37;15.80;99.90
18777;DHT22;9517;51.174;4.160;2023-05-07T01:45:06;15.90;99.90
18777;DHT22;9517;51.174;4.160;2023-05-07T01:47:34;15.80;99.90
18777;DHT22;9517;51.174;4.160;2023-05-07T01:50:03;15.70;99.90
18777;DHT22;9517;51.174;4.160;2023-05-07T01:52:31;15.60;99.90
18777;DHT22;9517;51.174;4.160;2023-05-07T01:54:59;15.60;99.90
18777;DHT22;9517;51.174;4.160;2023-05-07T01:57:28;15.60;99.90
18777;DHT22;9517;51.174;4.160;2023-05-07T01:59:55;15.60;99.90
18777;DHT22;9517;51.174;4.160;2023-05-07T02:02:23;15.60;99.90
18777;DHT22;9517;51.174;4.160;2023-05-07T02:04:50;15.60;99.90
18777;DHT22;9517;51.174;4.160;2023-05-07T02:07:17;15.60;99.90
18777;DHT22;9517;51.174;4.160;2023-05-07T02:09:45;15.60;99.90
18777;DHT22;9517;51.174;4.160;2023-05-07T02:12:13;15.60;99.90
18777;DHT22;9517;51.174;4.160;2023-05-07T02:14:42;15.70;99.90
18777;DHT22;9517;51.174;4.160;2023-05-07T02:17:09;15.70;99.90
18777;DHT22;9517;51.174;4.160;2023-05-07T02:19:36;15.70;99.90
18777;DHT22;9517;51.174;4.160;2023-05-07T02:22:04;15.70;99.90
18777;DHT22;9517;51.174;4.160;2023-05-07T02:24:31;15.70;99.90
18777;DHT22;9517;51.174;4.160;2023-05-07T02:26:59;15.80;99.90
18777;DHT22;9517;51.174;4.160;2023-05-07T02:36:18;16.00;99.90
18777;DHT22;9517;51.174;4.160;2023-05-07T02:39:40;16.10;99.90
18777;DHT22;9517;51.174;4.160;2023-05-07T02:46:25;16.10;99.90
18777;DHT22;9517;51.174;4.160;2023-05-07T02:48:41;16.10;99.90
18777;DHT22;9517;51.174;4.160;2023-05-07T02:51:08;16.10;99.90
18777;DHT22;9517;51.174;4.160;2023-05-07T02:53:37;16.20;99.90
18777;DHT22;9517;51.174;4.160;2023-05-07T02:56:05;16.30;99.90
18777;DHT22;9517;51.174;4.160;2023-05-07T02:58:32;16.30;99.90
18777;DHT22;9517;51.174;4.160;2023-05-07T03:01:00;16.30;99.90
18777;DHT22;9517;51.174;4.160;2023-05-07T03:03:30;16.20;99.90
18777;DHT22;9517;51.174;4.160;2023-05-07T03:06:00;16.20;99.90
18777;DHT22;9517;51.174;4.160;2023-05-07T03:08:27;16.20;99.90
18777;DHT22;9517;51.174;4.160;2023-05-07T03:10:56;16.10;99.90
18777;DHT22;9517;51.174;4.160;2023-05-07T03:13:24;16.10;99.90
18777;DHT22;9517;51.174;4.160;2023-05-07T03:15:53;16.10;99.90
18777;DHT22;9517;51.174;4.160;2023-05-07T03:18:21;16.10;99.90
18777;DHT22;9517;51.174;4.160;2023-05-07T03:20:48;16.00;99.90
18777;DHT22;9517;51.174;4.160;2023-05-07T03:23:16;16.00;99.90
18777;DHT22;9517;51.174;4.160;2023-05-07T03:25:43;15.90;99.90
18777;DHT22;9517;51.174;4.160;2023-05-07T03:28:12;15.90;99.90
18777;DHT22;9517;51.174;4.160;2023-05-07T03:30:39;16.00;99.90
18777;DHT22;9517;51.174;4.160;2023-05-07T03:33:06;16.00;99.90
18777;DHT22;9517;51.174;4.160;2023-05-07T03:35:34;16.00;99.90
18777;DHT22;9517;51.174;4.160;2023-05-07T03:38:01;16.10;99.90
18777;DHT22;9517;51.174;4.160;2023-05-07T03:40:28;16.00;99.90
18777;DHT22;9517;51.174;4.160;2023-05-07T03:42:56;16.10;99.90
18777;DHT22;9517;51.174;4.160;2023-05-07T03:45:24;16.10;99.90
18777;DHT22;9517;51.174;4.160;2023-05-07T03:47:55;16.10;99.90
18777;DHT22;9517;51.174;4.160;2023-05-07T03:50:22;16.10;99.90
18777;DHT22;9517;51.174;4.160;2023-05-07T03:52:49;16.10;99.90
18777;DHT22;9517;51.174;4.160;2023-05-07T03:55:17;16.20;99.90
18777;DHT22;9517;51.174;4.160;2023-05-07T03:57:44;16.10;99.90
18777;DHT22;9517;51.174;4.160;2023-05-07T04:00:13;16.20;99.90
18777;DHT22;9517;51.174;4.160;2023-05-07T04:02:42;16.10;99.90
18777;DHT22;9517;51.174;4.160;2023-05-07T04:05:10;16.10;99.90
18777;DHT22;9517;51.174;4.160;2023-05-07T04:07:37;16.10;99.90
18777;DHT22;9517;51.174;4.160;2023-05-07T04:10:05;16.00;99.90
18777;DHT22;9517;51.174;4.160;2023-05-07T04:12:33;16.10;99.90
18777;DHT22;9517;51.174;4.160;2023-05-07T04:15:00;16.10;99.90
18777;DHT22;9517;51.174;4.160;2023-05-07T04:17:28;16.10;99.90
18777;DHT22;9517;51.174;4.160;2023-05-07T04:19:57;16.10;99.90
18777;DHT22;9517;51.174;4.160;2023-05-07T04:22:25;16.10;99.90
18777;DHT22;9517;51.174;4.160;2023-05-07T04:24:52;16.10;99.90
18777;DHT22;9517;51.174;4.160;2023-05-07T04:27:20;16.20;99.90
18777;DHT22;9517;51.174;4.160;2023-05-07T04:29:47;16.20;99.90
18777;DHT22;9517;51.174;4.160;2023-05-07T04:32:15;16.20;99.90
18777;DHT22;9517;51.174;4.160;2023-05-07T04:34:43;16.20;99.90
18777;DHT22;9517;51.174;4.160;2023-05-07T04:37:12;16.30;99.90
18777;DHT22;9517;51.174;4.160;2023-05-07T04:39:40;16.40;99.90
18777;DHT22;9517;51.174;4.160;2023-05-07T04:42:07;16.30;99.90
18777;DHT22;9517;51.174;4.160;2023-05-07T04:44:35;16.30;99.90
18777;DHT22;9517;51.174;4.160;2023-05-07T04:47:03;16.40;99.90
18777;DHT22;9517;51.174;4.160;2023-05-07T04:49:30;16.40;99.90
18777;DHT22;9517;51.174;4.160;2023-05-07T04:51:58;16.50;99.90
18777;DHT22;9517;51.174;4.160;2023-05-07T04:54:27;16.50;99.90
18777;DHT22;9517;51.174;4.160;2023-05-07T04:56:54;16.50;99.90
18777;DHT22;9517;51.174;4.160;2023-05-07T04:59:22;16.50;99.90
18777;DHT22;9517;51.174;4.160;2023-05-07T05:01:49;16.50;99.90
18777;DHT22;9517;51.174;4.160;2023-05-07T05:04:17;16.50;99.90
18777;DHT22;9517;51.174;4.160;2023-05-07T05:06:44;16.60;99.90
18777;DHT22;9517;51.174;4.160;2023-05-07T05:09:14;16.70;99.90
18777;DHT22;9517;51.174;4.160;2023-05-07T05:11:44;16.80;99.90
18777;DHT22;9517;51.174;4.160;2023-05-07T05:14:12;16.80;99.90
18777;DHT22;9517;51.174;4.160;2023-05-07T05:16:39;16.90;99.90
18777;DHT22;9517;51.174;4.160;2023-05-07T05:19:06;17.00;99.90
18777;DHT22;9517;51.174;4.160;2023-05-07T05:21:34;17.20;99.90
18777;DHT22;9517;51.174;4.160;2023-05-07T05:24:01;17.20;99.90
18777;DHT22;9517;51.174;4.160;2023-05-07T05:26:28;17.10;99.90
18777;DHT22;9517;51.174;4.160;2023-05-07T05:28:57;17.20;99.90
18777;DHT22;9517;51.174;4.160;2023-05-07T05:31:25;17.20;99.90
18777;DHT22;9517;51.174;4.160;2023-05-07T05:33:52;17.30;99.90
18777;DHT22;9517;51.174;4.160;2023-05-07T05:36:22;17.40;99.90
18777;DHT22;9517;51.174;4.160;2023-05-07T05:38:50;17.40;99.90
18777;DHT22;9517;51.174;4.160;2023-05-07T05:41:17;17.30;99.90
18777;DHT22;9517;51.174;4.160;2023-05-07T05:43:45;17.40;99.90
18777;DHT22;9517;51.174;4.160;2023-05-07T05:46:14;17.40;99.90
18777;DHT22;9517;51.174;4.160;2023-05-07T05:48:42;17.40;99.90
18777;DHT22;9517;51.174;4.160;2023-05-07T05:51:09;17.30;99.90
18777;DHT22;9517;51.174;4.160;2023-05-07T05:53:37;17.40;99.90
18777;DHT22;9517;51.174;4.160;2023-05-07T05:56:05;17.30;99.90
18777;DHT22;9517;51.174;4.160;2023-05-07T05:58:32;17.30;99.90
18777;DHT22;9517;51.174;4.160;2023-05-07T06:00:59;17.30;99.90
18777;DHT22;9517;51.174;4.160;2023-05-07T06:03:29;17.20;99.90
18777;DHT22;9517;51.174;4.160;2023-05-07T06:05:57;17.20;99.90
18777;DHT22;9517;51.174;4.160;2023-05-07T06:08:25;17.10;99.90
18777;DHT22;9517;51.174;4.160;2023-05-07T06:10:52;17.10;99.90
18777;DHT22;9517;51.174;4.160;2023-05-07T06:13:19;17.10;99.90
18777;DHT22;9517;51.174;4.160;2023-05-07T06:15:46;17.20;99.90
18777;DHT22;9517;51.174;4.160;2023-05-07T06:18:13;17.20;99.90
18777;DHT22;9517;51.174;4.160;2023-05-07T06:20:42;17.20;99.90
18777;DHT22;9517;51.174;4.160;2023-05-07T06:23:09;17.10;99.90
18777;DHT22;9517;51.174;4.160;2023-05-07T06:25:36;17.20;99.90
18777;DHT22;9517;51.174;4.160;2023-05-07T06:28:03;17.20;99.90
18777;DHT22;9517;51.174;4.160;2023-05-07T06:30:30;17.40;99.90
18777;DHT22;9517;51.174;4.160;2023-05-07T06:32:57;17.50;99.90
18777;DHT22;9517;51.174;4.160;2023-05-07T06:35:24;17.40;99.90
18777;DHT22;9517;51.174;4.160;2023-05-07T06:37:53;17.50;99.90
18777;DHT22;9517;51.174;4.160;2023-05-07T06:40:20;17.40;99.90
18777;DHT22;9517;51.174;4.160;2023-05-07T06:42:47;17.40;99.90
18777;DHT22;9517;51.174;4.160;2023-05-07T06:45:14;17.40;99.90
18777;DHT22;9517;51.174;4.160;2023-05-07T06:47:42;17.30;99.90
18777;DHT22;9517;51.174;4.160;2023-05-07T06:50:09;17.20;99.90
18777;DHT22;9517;51.174;4.160;2023-05-07T06:52:36;17.10;99.90
18777;DHT22;9517;51.174;4.160;2023-05-07T06:55:06;17.10;99.90
18777;DHT22;9517;51.174;4.160;2023-05-07T06:57:33;17.20;99.90
18777;DHT22;9517;51.174;4.160;2023-05-07T07:00:00;17.10;99.90
18777;DHT22;9517;51.174;4.160;2023-05-07T07:02:28;17.20;99.90
18777;DHT22;9517;51.174;4.160;2023-05-07T07:04:55;17.20;99.90
18777;DHT22;9517;51.174;4.160;2023-05-07T07:07:22;17.20;99.90
18777;DHT22;9517;51.174;4.160;2023-05-07T07:09:49;17.30;99.90
18777;DHT22;9517;51.174;4.160;2023-05-07T07:12:18;17.30;99.90
18777;DHT22;9517;51.174;4.160;2023-05-07T07:14:45;17.30;99.90
18777;DHT22;9517;51.174;4.160;2023-05-07T07:17:12;17.40;99.90
18777;DHT22;9517;51.174;4.160;2023-05-07T07:19:39;17.30;99.90
18777;DHT22;9517;51.174;4.160;2023-05-07T07:22:06;17.20;99.90
18777;DHT22;9517;51.174;4.160;2023-05-07T07:24:33;17.30;99.90
18777;DHT22;9517;51.174;4.160;2023-05-07T07:27:01;17.40;99.90
18777;DHT22;9517;51.174;4.160;2023-05-07T07:29:29;17.40;99.90
18777;DHT22;9517;51.174;4.160;2023-05-07T07:31:56;17.60;99.90
18777;DHT22;9517;51.174;4.160;2023-05-07T07:34:23;17.70;99.90
18777;DHT22;9517;51.174;4.160;2023-05-07T07:36:51;17.60;99.90
18777;DHT22;9517;51.174;4.160;2023-05-07T07:39:18;17.60;99.90
18777;DHT22;9517;51.174;4.160;2023-05-07T07:41:45;17.50;99.90
18777;DHT22;9517;51.174;4.160;2023-05-07T07:44:12;17.60;99.90
18777;DHT22;9517;51.174;4.160;2023-05-07T07:46:41;17.60;99.90
18777;DHT22;9517;51.174;4.160;2023-05-07T07:49:08;17.60;99.90
18777;DHT22;9517;51.174;4.160;2023-05-07T07:51:35;17.60;99.90
18777;DHT22;9517;51.174;4.160;2023-05-07T07:54:02;17.50;99.90
18777;DHT22;9517;51.174;4.160;2023-05-07T07:56:29;17.40;99.90
18777;DHT22;9517;51.174;4.160;2023-05-07T07:58:56;17.50;99.90
18777;DHT22;9517;51.174;4.160;2023-05-07T08:01:24;17.50;99.90
18777;DHT22;9517;51.174;4.160;2023-05-07T08:03:52;17.50;99.90
18777;DHT22;9517;51.174;4.160;2023-05-07T08:06:19;17.60;99.90
18777;DHT22;9517;51.174;4.160;2023-05-07T08:08:47;17.70;99.90
18777;DHT22;9517;51.174;4.160;2023-05-07T08:11:14;17.80;99.90
18777;DHT22;9517;51.174;4.160;2023-05-07T08:13:41;17.70;99.90
18777;DHT22;9517;51.174;4.160;2023-05-07T08:16:08;17.50;99.90
18777;DHT22;9517;51.174;4.160;2023-05-07T08:18:36;17.40;99.90
18777;DHT22;9517;51.174;4.160;2023-05-07T08:21:04;17.20;99.90
18777;DHT22;9517;51.174;4.160;2023-05-07T08:23:31;17.10;99.90
18777;DHT22;9517;51.174;4.160;2023-05-07T08:26:00;17.10;99.90
18777;DHT22;9517;51.174;4.160;2023-05-07T08:28:27;17.10;99.90
18777;DHT22;9517;51.174;4.160;2023-05-07T08:30:54;17.20;99.90
18777;DHT22;9517;51.174;4.160;2023-05-07T08:33:22;17.20;99.90
18777;DHT22;9517;51.174;4.160;2023-05-07T08:35:49;17.30;99.90
18777;DHT22;9517;51.174;4.160;2023-05-07T08:38:17;17.30;99.90
18777;DHT22;9517;51.174;4.160;2023-05-07T08:40:44;17.40;99.90
18777;DHT22;9517;51.174;4.160;2023-05-07T08:43:13;17.40;99.90
18777;DHT22;9517;51.174;4.160;2023-05-07T08:45:41;17.40;99.90
18777;DHT22;9517;51.174;4.160;2023-05-07T08:48:09;17.30;99.90
18777;DHT22;9517;51.174;4.160;2023-05-07T08:50:41;17.20;99.90
18777;DHT22;9517;51.174;4.160;2023-05-07T08:53:08;17.00;99.90
18777;DHT22;9517;51.174;4.160;2023-05-07T08:55:36;16.90;99.90
18777;DHT22;9517;51.174;4.160;2023-05-07T08:58:03;16.80;99.90
18777;DHT22;9517;51.174;4.160;2023-05-07T09:00:31;16.60;99.90
18777;DHT22;9517;51.174;4.160;2023-05-07T09:03:00;16.60;99.90
18777;DHT22;9517;51.174;4.160;2023-05-07T09:05:27;16.70;99.90
18777;DHT22;9517;51.174;4.160;2023-05-07T09:07:54;16.70;99.90
18777;DHT22;9517;51.174;4.160;2023-05-07T09:10:22;16.70;99.90
18777;DHT22;9517;51.174;4.160;2023-05-07T09:12:50;16.80;99.90
18777;DHT22;9517;51.174;4.160;2023-05-07T09:15:18;16.80;99.90
18777;DHT22;9517;51.174;4.160;2023-05-07T09:17:45;16.90;99.90
18777;DHT22;9517;51.174;4.160;2023-05-07T09:20:12;16.90;99.90
18777;DHT22;9517;51.174;4.160;2023-05-07T09:22:39;16.90;99.90
18777;DHT22;9517;51.174;4.160;2023-05-07T09:25:07;16.80;99.90
18777;DHT22;9517;51.174;4.160;2023-05-07T09:27:35;16.80;99.90
18777;DHT22;9517;51.174;4.160;2023-05-07T09:30:06;16.70;99.90
18777;DHT22;9517;51.174;4.160;2023-05-07T09:32:35;16.70;99.90
18777;DHT22;9517;51.174;4.160;2023-05-07T09:35:04;16.70;99.90
18777;DHT22;9517;51.174;4.160;2023-05-07T09:37:31;16.70;99.90
18777;DHT22;9517;51.174;4.160;2023-05-07T09:39:59;16.50;99.90
18777;DHT22;9517;51.174;4.160;2023-05-07T09:42:26;16.50;99.90
18777;DHT22;9517;51.174;4.160;2023-05-07T09:44:53;16.60;99.90
18777;DHT22;9517;51.174;4.160;2023-05-07T09:47:24;16.70;99.90
18777;DHT22;9517;51.174;4.160;2023-05-07T09:49:56;16.70;99.90
18777;DHT22;9517;51.174;4.160;2023-05-07T09:52:24;16.70;99.90
18777;DHT22;9517;51.174;4.160;2023-05-07T09:54:55;16.70;99.90
18777;DHT22;9517;51.174;4.160;2023-05-07T09:57:26;16.80;99.90
18777;DHT22;9517;51.174;4.160;2023-05-07T09:59:54;16.80;99.90
18777;DHT22;9517;51.174;4.160;2023-05-07T10:02:26;16.90;99.90
18777;DHT22;9517;51.174;4.160;2023-05-07T10:04:54;16.90;99.90
18777;DHT22;9517;51.174;4.160;2023-05-07T10:07:23;16.90;99.90
18777;DHT22;9517;51.174;4.160;2023-05-07T10:09:56;16.90;99.90
18777;DHT22;9517;51.174;4.160;2023-05-07T10:12:28;16.90;99.90
18777;DHT22;9517;51.174;4.160;2023-05-07T10:14:56;17.00;99.90
18777;DHT22;9517;51.174;4.160;2023-05-07T10:17:25;17.20;99.90
18777;DHT22;9517;51.174;4.160;2023-05-07T10:19:53;17.20;99.90
18777;DHT22;9517;51.174;4.160;2023-05-07T10:22:21;17.20;99.90
18777;DHT22;9517;51.174;4.160;2023-05-07T10:24:52;17.10;99.90
18777;DHT22;9517;51.174;4.160;2023-05-07T10:27:20;17.20;99.90
18777;DHT22;9517;51.174;4.160;2023-05-07T10:30:13;17.30;99.90
18777;DHT22;9517;51.174;4.160;2023-05-07T10:32:54;17.50;99.90
18777;DHT22;9517;51.174;4.160;2023-05-07T10:35:25;17.70;99.90
18777;DHT22;9517;51.174;4.160;2023-05-07T10:37:53;17.70;99.90
18777;DHT22;9517;51.174;4.160;2023-05-07T10:40:21;17.70;99.90
18777;DHT22;9517;51.174;4.160;2023-05-07T10:42:55;17.70;99.90
18777;DHT22;9517;51.174;4.160;2023-05-07T10:45:23;17.80;99.90
18777;DHT22;9517;51.174;4.160;2023-05-07T10:48:09;17.80;99.90
18777;DHT22;9517;51.174;4.160;2023-05-07T10:50:37;17.90;99.90
18777;DHT22;9517;51.174;4.160;2023-05-07T10:53:24;17.80;99.90
18777;DHT22;9517;51.174;4.160;2023-05-07T10:56:26;17.90;99.90
18777;DHT22;9517;51.174;4.160;2023-05-07T11:01:52;17.90;99.90
18777;DHT22;9517;51.174;4.160;2023-05-07T11:04:21;18.10;99.90
18777;DHT22;9517;51.174;4.160;2023-05-07T11:07:15;18.30;99.90
18777;DHT22;9517;51.174;4.160;2023-05-07T11:10:00;18.70;99.90
18777;DHT22;9517;51.174;4.160;2023-05-07T11:12:54;18.70;99.90
18777;DHT22;9517;51.174;4.160;2023-05-07T11:15:44;18.50;99.90
18777;DHT22;9517;51.174;4.160;2023-05-07T11:18:12;18.60;99.90
18777;DHT22;9517;51.174;4.160;2023-05-07T11:20:55;18.60;99.90
18777;DHT22;9517;51.174;4.160;2023-05-07T11:23:56;18.80;99.90
18777;DHT22;9517;51.174;4.160;2023-05-07T11:26:28;18.90;99.90
18777;DHT22;9517;51.174;4.160;2023-05-07T11:28:57;19.30;99.90
18777;DHT22;9517;51.174;4.160;2023-05-07T11:31:27;19.30;99.90
18777;DHT22;9517;51.174;4.160;2023-05-07T11:33:55;19.80;99.90
18777;DHT22;9517;51.174;4.160;2023-05-07T11:36:24;20.00;99.90
18777;DHT22;9517;51.174;4.160;2023-05-07T11:38:52;20.10;99.90
18777;DHT22;9517;51.174;4.160;2023-05-07T11:41:19;20.30;99.90
18777;DHT22;9517;51.174;4.160;2023-05-07T11:43:57;20.50;99.90
18777;DHT22;9517;51.174;4.160;2023-05-07T11:46:26;20.60;99.90
18777;DHT22;9517;51.174;4.160;2023-05-07T11:48:53;20.90;99.90
18777;DHT22;9517;51.174;4.160;2023-05-07T11:51:21;21.40;99.90
18777;DHT22;9517;51.174;4.160;2023-05-07T11:53:50;21.10;99.90
18777;DHT22;9517;51.174;4.160;2023-05-07T11:56:18;20.90;99.90
18777;DHT22;9517;51.174;4.160;2023-05-07T11:58:47;20.90;99.90
18777;DHT22;9517;51.174;4.160;2023-05-07T12:01:16;21.20;99.90
18777;DHT22;9517;51.174;4.160;2023-05-07T12:03:46;21.40;99.90
18777;DHT22;9517;51.174;4.160;2023-05-07T12:06:14;21.90;99.90
18777;DHT22;9517;51.174;4.160;2023-05-07T12:08:42;22.00;99.90
18777;DHT22;9517;51.174;4.160;2023-05-07T12:11:14;22.30;99.90
18777;DHT22;9517;51.174;4.160;2023-05-07T12:13:43;22.60;99.90
18777;DHT22;9517;51.174;4.160;2023-05-07T12:16:10;22.70;99.90
18777;DHT22;9517;51.174;4.160;2023-05-07T12:18:38;22.20;99.90
18777;DHT22;9517;51.174;4.160;2023-05-07T12:21:05;22.50;99.90
18777;DHT22;9517;51.174;4.160;2023-05-07T12:23:34;22.80;99.90
18777;DHT22;9517;51.174;4.160;2023-05-07T12:26:03;22.70;99.90
18777;DHT22;9517;51.174;4.160;2023-05-07T12:28:36;22.60;99.90
18777;DHT22;9517;51.174;4.160;2023-05-07T12:31:04;22.70;99.90
18777;DHT22;9517;51.174;4.160;2023-05-07T12:33:32;22.30;99.90
18777;DHT22;9517;51.174;4.160;2023-05-07T12:36:03;22.30;99.90
18777;DHT22;9517;51.174;4.160;2023-05-07T12:38:35;22.50;99.90
18777;DHT22;9517;51.174;4.160;2023-05-07T12:41:03;22.70;99.90
18777;DHT22;9517;51.174;4.160;2023-05-07T12:43:32;23.30;99.90
18777;DHT22;9517;51.174;4.160;2023-05-07T12:46:01;23.40;99.90
18777;DHT22;9517;51.174;4.160;2023-05-07T12:48:28;23.30;99.90
18777;DHT22;9517;51.174;4.160;2023-05-07T12:50:56;23.80;99.90
18777;DHT22;9517;51.174;4.160;2023-05-07T12:53:25;23.80;99.90
18777;DHT22;9517;51.174;4.160;2023-05-07T12:55:55;23.80;99.90
18777;DHT22;9517;51.174;4.160;2023-05-07T12:58:27;24.50;99.90
18777;DHT22;9517;51.174;4.160;2023-05-07T13:00:57;24.00;99.90
18777;DHT22;9517;51.174;4.160;2023-05-07T13:03:26;24.30;99.90
18777;DHT22;9517;51.174;4.160;2023-05-07T13:05:55;24.30;99.90
18777;DHT22;9517;51.174;4.160;2023-05-07T13:08:30;24.90;99.90
18777;DHT22;9517;51.174;4.160;2023-05-07T13:10:58;24.70;99.90
18777;DHT22;9517;51.174;4.160;2023-05-07T13:13:28;24.10;99.90
18777;DHT22;9517;51.174;4.160;2023-05-07T13:15:57;24.10;99.90
18777;DHT22;9517;51.174;4.160;2023-05-07T13:18:25;23.50;99.90
18777;DHT22;9517;51.174;4.160;2023-05-07T13:20:53;23.30;99.90
18777;DHT22;9517;51.174;4.160;2023-05-07T13:23:20;23.00;99.90
18777;DHT22;9517;51.174;4.160;2023-05-07T13:25:48;22.80;99.90
18777;DHT22;9517;51.174;4.160;2023-05-07T13:28:16;22.50;99.90
18777;DHT22;9517;51.174;4.160;2023-05-07T13:30:43;22.30;99.90
18777;DHT22;9517;51.174;4.160;2023-05-07T13:33:12;22.10;99.90
18777;DHT22;9517;51.174;4.160;2023-05-07T13:35:40;21.30;99.90
18777;DHT22;9517;51.174;4.160;2023-05-07T13:38:07;20.70;99.90
18777;DHT22;9517;51.174;4.160;2023-05-07T13:40:34;20.30;99.90
18777;DHT22;9517;51.174;4.160;2023-05-07T13:43:01;20.20;99.90
18777;DHT22;9517;51.174;4.160;2023-05-07T13:45:29;20.10;99.90
18777;DHT22;9517;51.174;4.160;2023-05-07T13:47:57;19.90;99.90
18777;DHT22;9517;51.174;4.160;2023-05-07T13:50:25;19.80;99.90
18777;DHT22;9517;51.174;4.160;2023-05-07T13:52:55;19.90;99.90
18777;DHT22;9517;51.174;4.160;2023-05-07T13:55:24;20.10;99.90
18777;DHT22;9517;51.174;4.160;2023-05-07T13:57:55;20.50;99.90
18777;DHT22;9517;51.174;4.160;2023-05-07T14:00:23;20.70;99.90
18777;DHT22;9517;51.174;4.160;2023-05-07T14:02:51;20.90;99.90
18777;DHT22;9517;51.174;4.160;2023-05-07T14:05:18;21.10;99.90
18777;DHT22;9517;51.174;4.160;2023-05-07T14:07:47;21.20;99.90
18777;DHT22;9517;51.174;4.160;2023-05-07T14:10:17;21.30;99.90
18777;DHT22;9517;51.174;4.160;2023-05-07T14:12:44;21.40;99.90
18777;DHT22;9517;51.174;4.160;2023-05-07T14:15:12;21.40;99.90
18777;DHT22;9517;51.174;4.160;2023-05-07T14:17:39;21.60;99.90
18777;DHT22;9517;51.174;4.160;2023-05-07T14:20:08;21.80;99.90
18777;DHT22;9517;51.174;4.160;2023-05-07T14:22:36;21.90;99.90
18777;DHT22;9517;51.174;4.160;2023-05-07T14:25:06;21.90;99.90
18777;DHT22;9517;51.174;4.160;2023-05-07T14:27:35;22.50;99.90
18777;DHT22;9517;51.174;4.160;2023-05-07T14:30:02;23.10;99.90
18777;DHT22;9517;51.174;4.160;2023-05-07T14:32:29;23.00;99.90
18777;DHT22;9517;51.174;4.160;2023-05-07T14:34:56;22.90;99.90
18777;DHT22;9517;51.174;4.160;2023-05-07T14:37:23;22.80;99.90
18777;DHT22;9517;51.174;4.160;2023-05-07T14:39:51;22.70;99.90
18777;DHT22;9517;51.174;4.160;2023-05-07T14:42:19;22.60;99.90
18777;DHT22;9517;51.174;4.160;2023-05-07T14:44:46;22.50;99.90
18777;DHT22;9517;51.174;4.160;2023-05-07T14:47:14;22.70;99.90
18777;DHT22;9517;51.174;4.160;2023-05-07T14:49:41;22.50;99.90
18777;DHT22;9517;51.174;4.160;2023-05-07T14:52:08;22.80;99.90
18777;DHT22;9517;51.174;4.160;2023-05-07T14:54:37;23.50;99.90
18777;DHT22;9517;51.174;4.160;2023-05-07T14:57:04;23.50;99.90
18777;DHT22;9517;51.174;4.160;2023-05-07T14:59:33;23.50;99.90
18777;DHT22;9517;51.174;4.160;2023-05-07T15:02:00;23.70;99.90
18777;DHT22;9517;51.174;4.160;2023-05-07T15:04:28;24.10;99.90
18777;DHT22;9517;51.174;4.160;2023-05-07T15:06:55;24.80;99.90
18777;DHT22;9517;51.174;4.160;2023-05-07T15:09:22;24.90;99.90
18777;DHT22;9517;51.174;4.160;2023-05-07T15:11:49;24.60;99.90
18777;DHT22;9517;51.174;4.160;2023-05-07T15:14:16;24.60;99.90
18777;DHT22;9517;51.174;4.160;2023-05-07T15:16:45;24.50;99.90
18777;DHT22;9517;51.174;4.160;2023-05-07T15:19:12;24.60;99.90
18777;DHT22;9517;51.174;4.160;2023-05-07T15:21:40;24.40;99.90
18777;DHT22;9517;51.174;4.160;2023-05-07T15:24:08;24.30;99.90
18777;DHT22;9517;51.174;4.160;2023-05-07T15:26:35;24.80;99.90
18777;DHT22;9517;51.174;4.160;2023-05-07T15:29:03;25.10;99.90
18777;DHT22;9517;51.174;4.160;2023-05-07T15:31:35;25.10;99.90
18777;DHT22;9517;51.174;4.160;2023-05-07T15:34:04;25.00;99.90
18777;DHT22;9517;51.174;4.160;2023-05-07T15:36:31;24.90;99.90
18777;DHT22;9517;51.174;4.160;2023-05-07T15:38:59;24.40;99.90
18777;DHT22;9517;51.174;4.160;2023-05-07T15:41:27;24.30;99.90
18777;DHT22;9517;51.174;4.160;2023-05-07T15:43:55;24.10;99.90
18777;DHT22;9517;51.174;4.160;2023-05-07T15:46:23;24.00;99.90
18777;DHT22;9517;51.174;4.160;2023-05-07T15:48:51;23.80;99.90
18777;DHT22;9517;51.174;4.160;2023-05-07T15:51:19;23.50;99.90
18777;DHT22;9517;51.174;4.160;2023-05-07T15:53:47;23.30;99.90
18777;DHT22;9517;51.174;4.160;2023-05-07T15:56:14;23.30;99.90
18777;DHT22;9517;51.174;4.160;2023-05-07T15:58:42;23.30;99.90
18777;DHT22;9517;51.174;4.160;2023-05-07T16:01:09;23.30;99.90
18777;DHT22;9517;51.174;4.160;2023-05-07T16:03:36;23.10;99.90
18777;DHT22;9517;51.174;4.160;2023-05-07T16:06:04;23.30;99.90
18777;DHT22;9517;51.174;4.160;2023-05-07T16:08:33;23.10;99.90